createdAt,value
2023-05-22T00:00:12.714Z,65.55
2023-05-22T00:01:13.035Z,65.66
2023-05-22T00:02:13.374Z,65.86
2023-05-22T00:03:13.696Z,66.05
2023-05-22T00:04:13.961Z,66.25
2023-05-22T00:05:14.420Z,66.36
2023-05-22T00:06:14.598Z,66.49
2023-05-22T00:07:14.867Z,66.89
2023-05-22T00:08:15.243Z,67.09
2023-05-22T00:09:15.540Z,67.19
2023-05-22T00:10:15.865Z,67.19
2023-05-22T00:11:16.237Z,67.49
2023-05-22T00:12:16.561Z,67.59
2023-05-22T00:13:16.858Z,67.59
2023-05-22T00:14:17.165Z,67.79
2023-05-22T00:15:17.454Z,67.89
2023-05-22T00:16:17.885Z,67.92
2023-05-22T00:17:18.079Z,68.02
2023-05-22T00:18:18.360Z,68.12
2023-05-22T00:19:18.705Z,68.02
2023-05-22T00:20:19.099Z,68.12
2023-05-22T00:21:19.273Z,68.22
2023-05-22T00:22:19.720Z,68.22
2023-05-22T00:23:19.931Z,68.32
2023-05-22T00:24:20.068Z,68.32
2023-05-22T00:25:20.370Z,68.52
2023-05-22T00:26:20.616Z,68.62
2023-05-22T00:27:20.925Z,68.82
2023-05-22T00:28:21.664Z,68.92
2023-05-22T00:29:21.487Z,69.02
2023-05-22T00:30:21.915Z,69.02
2023-05-22T00:31:22.056Z,68.92
2023-05-22T00:32:22.649Z,69.02
2023-05-22T00:33:22.746Z,69.06
2023-05-22T00:34:23.058Z,69.06
2023-05-22T00:35:23.456Z,69.26
2023-05-22T00:36:23.706Z,69.35
2023-05-22T00:37:23.903Z,69.46
2023-05-22T00:38:24.244Z,69.46
2023-05-22T00:39:24.509Z,69.35
2023-05-22T00:40:24.816Z,69.35
2023-05-22T00:41:25.157Z,69.35
2023-05-22T00:42:25.434Z,69.46
2023-05-22T00:43:25.797Z,69.46
2023-05-22T00:44:26.101Z,69.56
2023-05-22T00:45:26.625Z,69.66
2023-05-22T00:46:26.841Z,69.86
2023-05-22T00:47:27.227Z,69.96
2023-05-22T00:48:27.459Z,69.86
2023-05-22T00:49:27.775Z,69.96
2023-05-22T00:50:29.467Z,69.96
2023-05-22T00:51:28.439Z,69.96
2023-05-22T00:52:28.618Z,70.06
2023-05-22T00:53:28.944Z,70.16
2023-05-22T00:54:29.261Z,70.19
2023-05-22T00:55:29.640Z,70.29
2023-05-22T00:56:29.881Z,70.39
2023-05-22T00:57:30.169Z,70.59
2023-05-22T00:58:30.487Z,70.59
2023-05-22T00:59:30.788Z,70.50
2023-05-22T01:00:31.102Z,70.59
2023-05-22T01:01:31.521Z,70.59
2023-05-22T01:02:31.821Z,70.59
2023-05-22T01:03:32.045Z,70.69
2023-05-22T01:04:32.261Z,71.00
2023-05-22T01:05:32.666Z,71.00
2023-05-22T01:06:32.830Z,71.09
2023-05-22T01:07:33.159Z,71.20
2023-05-22T01:08:33.450Z,71.20
2023-05-22T01:09:33.765Z,71.70
2023-05-22T01:10:34.038Z,72.03
2023-05-22T01:11:34.408Z,72.13
2023-05-22T01:12:34.775Z,72.24
2023-05-22T01:13:35.094Z,72.53
2023-05-22T01:14:35.327Z,72.74
2023-05-22T01:15:35.660Z,73.03
2023-05-22T01:16:35.994Z,72.94
2023-05-22T01:17:36.494Z,72.94
2023-05-22T01:18:36.518Z,72.83
2023-05-22T01:19:36.868Z,72.74
2023-05-22T01:20:37.407Z,72.83
2023-05-22T01:21:37.525Z,72.53
2023-05-22T01:22:37.769Z,72.43
2023-05-22T01:23:38.123Z,72.33
2023-05-22T01:24:38.414Z,72.47
2023-05-22T01:25:39.631Z,72.47
2023-05-22T01:26:39.048Z,72.37
2023-05-22T01:27:39.396Z,72.47
2023-05-22T01:28:39.740Z,72.33
2023-05-22T01:29:40.011Z,72.13
2023-05-22T01:30:40.589Z,73.33
2023-05-22T01:31:40.617Z,74.27
2023-05-22T01:32:40.930Z,74.27
2023-05-22T01:33:41.519Z,74.57
2023-05-22T01:34:41.524Z,74.77
2023-05-22T01:35:41.961Z,74.88
2023-05-22T01:36:42.130Z,74.98
2023-05-22T01:37:42.469Z,75.18
2023-05-22T01:38:42.781Z,75.01
2023-05-22T01:39:43.246Z,75.21
2023-05-22T01:40:43.384Z,75.21
2023-05-22T01:41:43.724Z,75.01
2023-05-22T01:42:44.028Z,75.51
2023-05-22T01:43:44.344Z,75.92
2023-05-22T01:44:44.942Z,76.02
2023-05-22T01:45:45.031Z,76.12
2023-05-22T01:46:45.234Z,76.45
2023-05-22T01:47:45.554Z,76.56
2023-05-22T01:48:45.814Z,76.65
2023-05-22T01:49:46.153Z,76.76
2023-05-22T01:50:46.868Z,76.76
2023-05-22T01:51:46.724Z,76.35
2023-05-22T01:52:46.977Z,76.35
2023-05-22T01:53:47.349Z,75.95
2023-05-22T01:54:47.651Z,75.85
2023-05-22T01:55:48.092Z,75.65
2023-05-22T01:56:48.209Z,75.65
2023-05-22T01:57:48.678Z,75.35
2023-05-22T01:58:48.870Z,75.05
2023-05-22T01:59:49.045Z,74.95
2023-05-22T02:00:49.420Z,74.95
2023-05-22T02:01:49.861Z,74.91
2023-05-22T02:02:50.082Z,74.91
2023-05-22T02:03:50.369Z,74.91
2023-05-22T02:04:50.628Z,74.85
2023-05-22T02:05:50.959Z,74.95
2023-05-22T02:06:51.318Z,74.95
2023-05-22T02:07:51.609Z,74.95
2023-05-22T02:08:51.931Z,75.05
2023-05-22T02:09:52.225Z,75.05
2023-05-22T02:10:52.578Z,75.25
2023-05-22T02:11:52.955Z,74.95
2023-05-22T02:12:53.198Z,75.05
2023-05-22T02:13:53.463Z,74.95
2023-05-22T02:14:53.833Z,74.85
2023-05-22T02:15:54.156Z,74.65
2023-05-22T02:16:54.447Z,74.55
2023-05-22T02:17:54.794Z,74.44
2023-05-22T02:18:55.102Z,74.35
2023-05-22T02:19:55.367Z,74.44
2023-05-22T02:20:56.655Z,74.35
2023-05-22T02:21:56.436Z,74.44
2023-05-22T02:22:56.218Z,74.35
2023-05-22T02:23:56.568Z,74.35
2023-05-22T02:24:56.852Z,74.35
2023-05-22T02:25:57.189Z,74.55
2023-05-22T02:26:57.553Z,74.51
2023-05-22T02:27:57.821Z,74.61
2023-05-22T02:28:58.131Z,74.61
2023-05-22T02:29:58.454Z,74.41
2023-05-22T02:30:58.798Z,74.21
2023-05-22T02:31:59.194Z,74.21
2023-05-22T02:32:59.443Z,74.41
2023-05-22T02:33:59.702Z,74.61
2023-05-22T02:34:59.980Z,74.81
2023-05-22T02:36:00.439Z,75.25
2023-05-22T02:37:00.565Z,75.15
2023-05-22T02:38:01.326Z,75.25
2023-05-22T02:39:01.247Z,75.45
2023-05-22T02:40:01.782Z,75.45
2023-05-22T02:41:01.791Z,75.25
2023-05-22T02:42:02.152Z,75.35
2023-05-22T02:43:02.506Z,75.25
2023-05-22T02:44:02.738Z,75.25
2023-05-22T02:45:03.025Z,75.25
2023-05-22T02:46:03.249Z,75.25
2023-05-22T02:47:03.643Z,75.55
2023-05-22T02:48:04.029Z,75.45
2023-05-22T02:49:04.146Z,75.45
2023-05-22T02:50:04.435Z,75.65
2023-05-22T02:51:04.826Z,75.75
2023-05-22T02:52:05.177Z,75.85
2023-05-22T02:53:05.331Z,76.05
2023-05-22T02:54:05.651Z,76.25
2023-05-22T02:55:05.934Z,76.19
2023-05-22T02:56:06.243Z,76.25
2023-05-22T02:57:06.542Z,76.19
2023-05-22T02:58:06.880Z,76.09
2023-05-22T02:59:07.157Z,76.05
2023-05-22T03:00:07.461Z,76.05
2023-05-22T03:01:07.791Z,75.95
2023-05-22T03:02:08.106Z,75.95
2023-05-22T03:03:08.411Z,75.75
2023-05-22T03:04:08.665Z,75.95
2023-05-22T03:05:08.913Z,76.25
2023-05-22T03:06:09.139Z,76.15
2023-05-22T03:07:09.492Z,76.45
2023-05-22T03:08:09.890Z,76.59
2023-05-22T03:09:10.070Z,76.79
2023-05-22T03:10:10.425Z,77.09
2023-05-22T03:11:10.616Z,77.20
2023-05-22T03:12:10.925Z,77.09
2023-05-22T03:13:11.225Z,77.29
2023-05-22T03:14:11.518Z,77.53
2023-05-22T03:15:11.755Z,77.63
2023-05-22T03:16:12.059Z,77.73
2023-05-22T03:17:12.372Z,77.73
2023-05-22T03:18:12.735Z,77.73
2023-05-22T03:19:13.081Z,77.73
2023-05-22T03:20:13.266Z,77.73
2023-05-22T03:21:13.468Z,77.83
2023-05-22T03:22:13.847Z,77.94
2023-05-22T03:23:14.188Z,77.83
2023-05-22T03:24:14.326Z,77.83
2023-05-22T03:25:14.626Z,77.73
2023-05-22T03:26:14.949Z,77.83
2023-05-22T03:27:15.357Z,78.03
2023-05-22T03:28:15.609Z,78.03
2023-05-22T03:29:15.846Z,77.94
2023-05-22T03:30:16.196Z,77.94
2023-05-22T03:31:16.383Z,78.03
2023-05-22T03:32:16.751Z,78.03
2023-05-22T03:33:16.983Z,78.03
2023-05-22T03:34:17.722Z,77.94
2023-05-22T03:35:17.502Z,77.73
2023-05-22T03:36:17.729Z,77.73
2023-05-22T03:37:17.992Z,77.73
2023-05-22T03:38:18.330Z,77.73
2023-05-22T03:39:18.525Z,77.94
2023-05-22T03:40:18.936Z,77.94
2023-05-22T03:41:19.128Z,77.83
2023-05-22T03:42:19.412Z,77.73
2023-05-22T03:43:19.587Z,77.73
2023-05-22T03:44:19.941Z,77.83
2023-05-22T03:45:20.131Z,77.83
2023-05-22T03:46:20.634Z,77.83
2023-05-22T03:47:20.899Z,77.83
2023-05-22T03:48:21.069Z,77.83
2023-05-22T03:49:21.327Z,78.03
2023-05-22T03:50:21.589Z,78.03
2023-05-22T03:51:21.799Z,77.94
2023-05-22T03:52:22.085Z,77.83
2023-05-22T03:53:22.341Z,78.03
2023-05-22T03:54:22.628Z,78.03
2023-05-22T03:55:22.844Z,78.00
2023-05-22T03:56:23.132Z,78.00
2023-05-22T03:57:23.351Z,78.00
2023-05-22T03:58:23.671Z,78.03
2023-05-22T03:59:23.867Z,78.03
2023-05-22T04:00:25.711Z,77.73
2023-05-22T04:01:24.540Z,77.83
2023-05-22T04:02:24.821Z,77.59
2023-05-22T04:03:25.039Z,77.39
2023-05-22T04:04:25.265Z,77.80
2023-05-22T04:05:25.987Z,77.70
2023-05-22T04:06:25.876Z,77.80
2023-05-22T04:07:26.090Z,78.03
2023-05-22T04:08:26.415Z,78.14
2023-05-22T04:09:26.797Z,78.34
2023-05-22T04:10:27.080Z,78.44
2023-05-22T04:11:27.263Z,78.64
2023-05-22T04:12:27.659Z,78.54
2023-05-22T04:13:27.849Z,78.54
2023-05-22T04:14:28.204Z,78.44
2023-05-22T04:15:28.491Z,78.74
2023-05-22T04:16:28.823Z,78.44
2023-05-22T04:17:29.038Z,78.34
2023-05-22T04:18:29.336Z,78.34
2023-05-22T04:19:29.665Z,78.54
2023-05-22T04:20:29.812Z,78.74
2023-05-22T04:21:30.086Z,78.84
2023-05-22T04:22:30.317Z,78.54
2023-05-22T04:23:30.593Z,78.34
2023-05-22T04:24:30.984Z,78.34
2023-05-22T04:25:31.154Z,78.47
2023-05-22T04:26:31.545Z,78.67
2023-05-22T04:27:31.729Z,79.08
2023-05-22T04:28:32.109Z,79.18
2023-05-22T04:29:32.348Z,79.08
2023-05-22T04:30:32.763Z,79.28
2023-05-22T04:31:33.373Z,79.38
2023-05-22T04:32:33.226Z,79.38
2023-05-22T04:33:33.350Z,79.48
2023-05-22T04:34:33.660Z,79.68
2023-05-22T04:35:33.841Z,79.99
2023-05-22T04:36:34.256Z,80.19
2023-05-22T04:37:34.459Z,80.43
2023-05-22T04:38:34.810Z,80.52
2023-05-22T04:39:35.060Z,80.52
2023-05-22T04:40:35.407Z,80.52
2023-05-22T04:41:35.614Z,80.52
2023-05-22T04:42:35.960Z,80.32
2023-05-22T04:43:36.171Z,80.22
2023-05-22T04:44:36.530Z,80.22
2023-05-22T04:45:36.725Z,80.43
2023-05-22T04:46:37.045Z,80.43
2023-05-22T04:47:37.290Z,80.52
2023-05-22T04:48:37.529Z,80.63
2023-05-22T04:49:37.769Z,80.43
2023-05-22T04:50:38.318Z,80.39
2023-05-22T04:51:38.415Z,80.29
2023-05-22T04:52:38.691Z,80.19
2023-05-22T04:53:38.898Z,80.29
2023-05-22T04:54:39.215Z,80.39
2023-05-22T04:55:39.458Z,80.49
2023-05-22T04:56:40.034Z,80.52
2023-05-22T04:57:40.081Z,80.63
2023-05-22T04:58:40.361Z,80.52
2023-05-22T04:59:40.645Z,80.63
2023-05-22T05:00:41.113Z,80.73
2023-05-22T05:01:41.145Z,80.63
2023-05-22T05:02:41.481Z,80.63
2023-05-22T05:03:41.774Z,80.63
2023-05-22T05:04:42.054Z,80.73
2023-05-22T05:05:42.376Z,80.73
2023-05-22T05:06:42.578Z,80.63
2023-05-22T05:07:42.785Z,80.63
2023-05-22T05:08:43.213Z,80.49
2023-05-22T05:09:43.370Z,80.49
2023-05-22T05:10:43.648Z,80.39
2023-05-22T05:11:43.847Z,80.29
2023-05-22T05:12:44.246Z,80.08
2023-05-22T05:13:44.439Z,79.88
2023-05-22T05:14:44.807Z,79.99
2023-05-22T05:15:45.043Z,79.88
2023-05-22T05:16:45.431Z,79.74
2023-05-22T05:17:45.686Z,79.44
2023-05-22T05:18:46.118Z,79.14
2023-05-22T05:19:46.193Z,79.04
2023-05-22T05:20:46.504Z,78.80
2023-05-22T05:21:46.779Z,78.70
2023-05-22T05:22:47.111Z,78.60
2023-05-22T05:23:47.323Z,78.50
2023-05-22T05:24:47.705Z,78.40
2023-05-22T05:25:47.938Z,78.50
2023-05-22T05:26:48.318Z,78.60
2023-05-22T05:27:48.551Z,78.40
2023-05-22T05:28:48.884Z,78.30
2023-05-22T05:29:50.237Z,78.06
2023-05-22T05:30:49.438Z,77.76
2023-05-22T05:31:49.735Z,77.96
2023-05-22T05:32:50.033Z,77.76
2023-05-22T05:33:50.182Z,77.36
2023-05-22T05:34:50.568Z,77.96
2023-05-22T05:35:50.846Z,78.42
2023-05-22T05:36:51.264Z,78.33
2023-05-22T05:37:51.361Z,78.22
2023-05-22T05:38:51.712Z,78.22
2023-05-22T05:39:53.700Z,77.62
2023-05-22T05:40:52.226Z,77.42
2023-05-22T05:41:52.643Z,77.42
2023-05-22T05:42:52.788Z,77.42
2023-05-22T05:43:53.068Z,77.42
2023-05-22T05:45:04.095Z,77.42
2023-05-22T05:45:53.637Z,77.52
2023-05-22T05:46:53.911Z,77.72
2023-05-22T05:48:04.518Z,77.62
2023-05-22T05:48:54.485Z,77.62
2023-05-22T05:50:05.783Z,77.72
2023-05-22T05:51:03.339Z,78.03
2023-05-22T05:51:55.392Z,77.83
2023-05-22T05:52:55.844Z,77.59
2023-05-22T05:53:56.104Z,77.48
2023-05-22T05:54:56.323Z,77.39
2023-05-22T05:55:56.603Z,77.09
2023-05-22T05:56:57.202Z,76.34
2023-05-22T05:57:57.179Z,75.84
2023-05-22T05:59:08.568Z,75.24
2023-05-22T05:59:57.783Z,74.94
2023-05-22T06:00:58.119Z,74.74
2023-05-22T06:01:58.562Z,74.60
2023-05-22T06:02:58.729Z,74.20
2023-05-22T06:03:59.325Z,74.30
2023-05-22T06:04:59.243Z,74.20
2023-05-22T06:05:59.449Z,74.20
2023-05-22T06:06:59.743Z,74.17
2023-05-22T06:08:00.189Z,74.40
2023-05-22T06:09:04.651Z,74.27
2023-05-22T06:10:00.720Z,74.27
2023-05-22T06:11:00.971Z,74.17
2023-05-22T06:12:01.268Z,73.97
2023-05-22T06:13:01.508Z,73.63
2023-05-22T06:14:01.911Z,73.43
2023-05-22T06:15:02.197Z,73.13
2023-05-22T06:16:05.024Z,73.00
2023-05-22T06:17:02.770Z,72.60
2023-05-22T06:18:03.198Z,72.89
2023-05-22T06:19:03.470Z,72.89
2023-05-22T06:20:03.564Z,72.89
2023-05-22T06:21:03.887Z,72.86
2023-05-22T06:22:04.128Z,72.80
2023-05-22T06:23:04.420Z,72.60
2023-05-22T06:24:04.734Z,72.69
2023-05-22T06:25:05.024Z,72.69
2023-05-22T06:26:05.678Z,73.19
2023-05-22T06:27:05.582Z,73.16
2023-05-22T06:28:06.097Z,73.06
2023-05-22T06:29:13.907Z,72.96
2023-05-22T06:30:06.409Z,73.16
2023-05-22T06:31:06.792Z,73.80
2023-05-22T06:32:16.311Z,74.00
2023-05-22T06:33:07.463Z,74.00
2023-05-22T06:34:07.747Z,73.26
2023-05-22T06:35:07.982Z,73.06
2023-05-22T06:36:08.172Z,72.86
2023-05-22T06:37:08.491Z,72.63
2023-05-22T06:38:08.783Z,72.13
2023-05-22T06:39:09.045Z,71.92
2023-05-22T06:40:09.383Z,71.92
2023-05-22T06:41:09.684Z,72.23
2023-05-22T06:42:09.949Z,72.53
2023-05-22T06:43:10.365Z,72.96
2023-05-22T06:44:10.454Z,73.46
2023-05-22T06:45:10.720Z,73.66
2023-05-22T06:46:10.997Z,73.22
2023-05-22T06:47:11.182Z,72.53
2023-05-22T06:48:11.504Z,72.53
2023-05-22T06:49:11.755Z,71.89
2023-05-22T06:50:11.991Z,72.19
2023-05-22T06:51:12.408Z,71.96
2023-05-22T06:52:12.524Z,70.86
2023-05-22T06:53:12.784Z,70.66
2023-05-22T06:54:13.050Z,70.56
2023-05-22T06:55:13.317Z,71.12
2023-05-22T06:56:13.635Z,70.72
2023-05-22T06:57:13.973Z,69.99
2023-05-22T06:58:14.229Z,68.70
2023-05-22T06:59:14.605Z,67.69
2023-05-22T07:00:14.760Z,67.80
2023-05-22T07:01:15.115Z,67.80
2023-05-22T07:02:15.349Z,67.60
2023-05-22T07:03:15.588Z,67.36
2023-05-22T07:04:16.103Z,66.63
2023-05-22T07:05:16.182Z,67.13
2023-05-22T07:06:16.820Z,67.10
2023-05-22T07:07:16.814Z,67.30
2023-05-22T07:08:17.051Z,67.80
2023-05-22T07:09:17.373Z,68.10
2023-05-22T07:10:21.853Z,67.66
2023-05-22T07:11:17.983Z,67.46
2023-05-22T07:12:18.220Z,67.46
2023-05-22T07:13:18.516Z,67.26
2023-05-22T07:14:18.853Z,67.23
2023-05-22T07:15:19.184Z,67.13
2023-05-22T07:16:19.456Z,66.83
2023-05-22T07:17:19.702Z,66.93
2023-05-22T07:18:19.963Z,67.69
2023-05-22T07:19:20.269Z,68.29
2023-05-22T07:20:20.504Z,68.63
2023-05-22T07:21:20.833Z,68.79
2023-05-22T07:22:21.082Z,68.40
2023-05-22T07:23:21.305Z,68.19
2023-05-22T07:24:21.629Z,68.29
2023-05-22T07:25:21.988Z,68.29
2023-05-22T07:26:22.326Z,68.19
2023-05-22T07:27:22.464Z,68.13
2023-05-22T07:28:22.711Z,68.13
2023-05-22T07:29:23.388Z,68.23
2023-05-22T07:30:23.226Z,67.53
2023-05-22T07:31:23.705Z,67.23
2023-05-22T07:32:24.047Z,66.80
2023-05-22T07:33:24.127Z,66.47
2023-05-22T07:34:24.448Z,65.87
2023-05-22T07:35:24.641Z,66.70
2023-05-22T07:36:24.984Z,66.39
2023-05-22T07:37:25.256Z,66.89
2023-05-22T07:38:25.516Z,66.66
2023-05-22T07:39:25.802Z,66.27
2023-05-22T07:40:26.687Z,65.94
2023-05-22T07:41:26.387Z,65.73
2023-05-22T07:42:26.671Z,64.81
2023-05-22T07:43:26.880Z,64.81
2023-05-22T07:44:27.245Z,64.71
2023-05-22T07:45:27.573Z,64.61
2023-05-22T07:46:27.758Z,64.41
2023-05-22T07:47:28.004Z,64.21
2023-05-22T07:48:28.258Z,64.51
2023-05-22T07:49:28.499Z,64.21
2023-05-22T07:50:28.766Z,63.88
2023-05-22T07:51:29.144Z,63.78
2023-05-22T07:52:29.306Z,63.88
2023-05-22T07:53:30.474Z,63.18
2023-05-22T07:54:29.969Z,63.18
2023-05-22T07:55:30.210Z,64.11
2023-05-22T07:56:30.456Z,64.31
2023-05-22T07:57:30.718Z,63.58
2023-05-22T07:58:31.891Z,63.15
2023-05-22T07:59:31.795Z,62.85
2023-05-22T08:00:31.627Z,62.85
2023-05-22T08:01:31.872Z,62.72
2023-05-22T08:02:32.352Z,61.90
2023-05-22T08:03:32.625Z,60.80
2023-05-22T08:04:32.802Z,60.47
2023-05-22T08:05:33.093Z,60.47
2023-05-22T08:06:33.339Z,60.50
2023-05-22T08:07:33.730Z,60.38
2023-05-22T08:08:33.841Z,59.75
2023-05-22T08:09:34.123Z,58.92
2023-05-22T08:10:52.316Z,58.10
2023-05-22T08:11:36.603Z,57.87
2023-05-22T08:12:34.934Z,56.95
2023-05-22T08:13:35.490Z,56.26
2023-05-22T08:14:35.673Z,55.71
2023-05-22T08:15:35.855Z,55.19
2023-05-22T08:16:36.234Z,55.09
2023-05-22T08:17:36.412Z,54.82
2023-05-22T08:18:36.638Z,54.69
2023-05-22T08:19:37.045Z,54.27
2023-05-22T08:20:37.275Z,53.95
2023-05-22T08:21:37.869Z,54.07
2023-05-22T08:22:37.947Z,53.25
2023-05-22T08:23:38.145Z,52.73
2023-05-22T08:24:38.382Z,52.09
2023-05-22T08:25:39.783Z,51.28
2023-05-22T08:26:39.110Z,50.88
2023-05-22T08:27:39.400Z,51.20
2023-05-22T08:28:39.550Z,50.90
2023-05-22T08:29:39.846Z,51.13
2023-05-22T08:30:40.515Z,51.42
2023-05-22T08:31:40.505Z,51.52
2023-05-22T08:32:40.774Z,52.17
2023-05-22T08:33:41.160Z,52.96
2023-05-22T08:34:41.319Z,52.14
2023-05-22T08:35:41.433Z,51.52
2023-05-22T08:36:41.758Z,51.20
2023-05-22T08:37:42.011Z,50.90
2023-05-22T08:38:42.257Z,50.56
2023-05-22T08:39:42.452Z,49.87
2023-05-22T08:40:45.959Z,50.66
2023-05-22T08:41:43.151Z,49.87
2023-05-22T08:42:43.472Z,50.48
2023-05-22T08:43:43.810Z,50.59
2023-05-22T08:44:44.048Z,50.48
2023-05-22T08:45:44.487Z,50.66
2023-05-22T08:46:44.586Z,49.22
2023-05-22T08:47:45.004Z,48.91
2023-05-22T08:48:45.072Z,48.29
2023-05-22T08:49:45.363Z,48.29
2023-05-22T08:50:45.666Z,48.59
2023-05-22T08:51:45.917Z,49.03
2023-05-22T08:52:46.203Z,49.52
2023-05-22T08:53:46.491Z,49.55
2023-05-22T08:54:46.834Z,49.87
2023-05-22T08:55:47.014Z,50.07
2023-05-22T08:56:56.183Z,50.46
2023-05-22T08:57:49.586Z,50.68
2023-05-22T08:58:48.324Z,50.98
2023-05-22T08:59:48.223Z,51.20
2023-05-22T09:00:48.530Z,51.18
2023-05-22T09:01:48.853Z,51.30
2023-05-22T09:02:49.105Z,51.59
2023-05-22T09:03:49.638Z,51.07
2023-05-22T09:04:49.793Z,51.00
2023-05-22T09:05:50.014Z,52.34
2023-05-22T09:06:50.250Z,52.34
2023-05-22T09:07:51.643Z,52.17
2023-05-22T09:08:51.666Z,54.42
2023-05-22T09:09:51.151Z,55.02
2023-05-22T09:10:51.524Z,55.83
2023-05-22T09:11:51.706Z,55.64
2023-05-22T09:12:51.950Z,55.32
2023-05-22T09:13:52.192Z,55.21
2023-05-22T09:14:53.460Z,55.02
2023-05-22T09:15:52.817Z,55.09
2023-05-22T09:16:53.219Z,55.09
2023-05-22T09:17:53.385Z,54.89
2023-05-22T09:18:53.709Z,54.79
2023-05-22T09:19:53.878Z,54.57
2023-05-22T09:20:54.246Z,54.17
2023-05-22T09:21:54.635Z,53.65
2023-05-22T09:22:54.843Z,53.55
2023-05-22T09:23:55.132Z,54.07
2023-05-22T09:24:55.430Z,54.24
2023-05-22T09:25:55.810Z,53.82
2023-05-22T09:26:56.092Z,52.06
2023-05-22T09:27:56.357Z,51.67
2023-05-22T09:28:56.588Z,51.70
2023-05-22T09:29:56.884Z,51.25
2023-05-22T09:30:57.140Z,50.76
2023-05-22T09:31:57.488Z,50.56
2023-05-22T09:32:57.669Z,51.18
2023-05-22T09:33:57.986Z,51.59
2023-05-22T09:34:58.224Z,51.92
2023-05-22T09:35:58.488Z,52.51
2023-05-22T09:36:58.755Z,52.64
2023-05-22T09:37:59.127Z,52.41
2023-05-22T09:38:59.348Z,52.22
2023-05-22T09:39:59.724Z,51.92
2023-05-22T09:41:00.469Z,52.64
2023-05-22T09:42:00.485Z,52.83
2023-05-22T09:43:00.749Z,52.44
2023-05-22T09:44:02.116Z,52.51
2023-05-22T09:45:01.141Z,52.93
2023-05-22T09:46:02.047Z,53.13
2023-05-22T09:47:01.839Z,53.35
2023-05-22T09:48:02.346Z,53.25
2023-05-22T09:49:02.464Z,53.55
2023-05-22T09:50:02.726Z,53.25
2023-05-22T09:51:02.986Z,53.03
2023-05-22T09:52:03.355Z,52.93
2023-05-22T09:53:03.509Z,52.54
2023-05-22T09:54:03.898Z,52.83
2023-05-22T09:55:04.118Z,52.83
2023-05-22T09:56:04.468Z,52.96
2023-05-22T09:57:04.814Z,52.73
2023-05-22T09:58:05.060Z,52.83
2023-05-22T09:59:05.252Z,52.66
2023-05-22T10:00:05.823Z,54.49
2023-05-22T10:01:05.878Z,54.27
2023-05-22T10:02:06.229Z,54.37
2023-05-22T10:03:06.484Z,54.47
2023-05-22T10:04:06.797Z,54.67
2023-05-22T10:05:07.204Z,54.57
2023-05-22T10:06:07.285Z,54.37
2023-05-22T10:07:07.593Z,54.86
2023-05-22T10:08:08.030Z,54.96
2023-05-22T10:09:08.079Z,53.82
2023-05-22T10:10:08.466Z,52.17
2023-05-22T10:11:08.785Z,51.67
2023-05-22T10:12:08.999Z,51.57
2023-05-22T10:13:09.269Z,51.67
2023-05-22T10:14:09.505Z,51.64
2023-05-22T10:15:09.776Z,50.61
2023-05-22T10:16:10.192Z,50.12
2023-05-22T10:17:10.421Z,50.41
2023-05-22T10:18:10.607Z,50.93
2023-05-22T10:19:10.844Z,50.73
2023-05-22T10:20:11.056Z,50.54
2023-05-22T10:21:11.556Z,50.83
2023-05-22T10:22:11.784Z,51.03
2023-05-22T10:23:11.944Z,49.79
2023-05-22T10:24:12.236Z,48.74
2023-05-22T10:25:12.569Z,48.13
2023-05-22T10:26:13.047Z,47.61
2023-05-22T10:27:13.067Z,47.41
2023-05-22T10:28:13.381Z,46.80
2023-05-22T10:29:13.623Z,45.97
2023-05-22T10:30:13.915Z,46.68
2023-05-22T10:31:14.246Z,47.85
2023-05-22T10:32:14.596Z,49.16
2023-05-22T10:33:14.935Z,48.32
2023-05-22T10:34:15.254Z,47.80
2023-05-22T10:35:15.547Z,46.58
2023-05-22T10:36:15.653Z,46.17
2023-05-22T10:37:18.576Z,45.85
2023-05-22T10:38:16.176Z,44.73
2023-05-22T10:39:16.509Z,43.70
2023-05-22T10:40:16.815Z,43.60
2023-05-22T10:41:17.111Z,42.99
2023-05-22T10:42:17.533Z,42.68
2023-05-22T10:43:17.732Z,42.05
2023-05-22T10:44:18.110Z,41.54
2023-05-22T10:45:18.396Z,41.13
2023-05-22T10:46:22.698Z,41.35
2023-05-22T10:47:19.794Z,41.25
2023-05-22T10:48:19.212Z,41.66
2023-05-22T10:49:30.913Z,42.80
2023-05-22T10:50:27.371Z,43.31
2023-05-22T10:51:19.946Z,44.31
2023-05-22T10:52:20.271Z,43.99
2023-05-22T10:53:20.583Z,43.38
2023-05-22T10:54:28.408Z,42.66
2023-05-22T10:55:21.124Z,41.86
2023-05-22T10:56:23.738Z,41.64
2023-05-22T10:57:21.753Z,41.86
2023-05-22T10:58:24.239Z,41.66
2023-05-22T10:59:22.301Z,42.80
2023-05-22T11:00:22.603Z,42.99
2023-05-22T11:01:23.082Z,42.88
2023-05-22T11:02:23.423Z,42.36
2023-05-22T11:03:27.700Z,41.56
2023-05-22T11:04:23.740Z,42.36
2023-05-22T11:05:37.719Z,42.68
2023-05-22T11:06:34.519Z,42.76
2023-05-22T11:07:34.024Z,42.56
2023-05-22T11:08:24.982Z,42.48
2023-05-22T11:10:48.898Z,42.48
2023-05-22T11:11:48.796Z,41.96
2023-05-22T11:12:49.216Z,41.25
2023-05-22T11:13:49.384Z,40.53
2023-05-22T11:14:49.768Z,40.64
2023-05-22T11:15:50.098Z,41.00
2023-05-22T11:16:50.452Z,42.62
2023-05-22T11:17:50.676Z,43.23
2023-05-22T11:18:50.963Z,43.13
2023-05-22T11:19:51.153Z,43.26
2023-05-22T11:20:51.656Z,43.84
2023-05-22T11:21:51.717Z,43.86
2023-05-22T11:22:52.090Z,44.08
2023-05-22T11:23:52.267Z,43.74
2023-05-22T11:24:52.561Z,43.23
2023-05-22T11:25:53.158Z,43.13
2023-05-22T11:26:52.932Z,42.94
2023-05-22T11:27:53.423Z,42.82
2023-05-22T11:28:53.620Z,42.07
2023-05-22T11:29:53.968Z,41.25
2023-05-22T11:30:54.149Z,40.66
2023-05-22T11:31:54.465Z,40.25
2023-05-22T11:32:54.899Z,39.86
2023-05-22T11:33:55.303Z,40.58
2023-05-22T11:35:01.093Z,41.42
2023-05-22T11:35:57.575Z,42.43
2023-05-22T11:36:56.171Z,43.05
2023-05-22T11:37:57.229Z,44.01
2023-05-22T11:38:56.461Z,44.73
2023-05-22T11:39:57.186Z,45.67
2023-05-22T11:40:58.245Z,46.50
2023-05-22T11:41:57.360Z,46.10
2023-05-22T11:42:57.610Z,46.30
2023-05-22T11:43:57.808Z,46.69
2023-05-22T11:44:58.232Z,46.59
2023-05-22T11:45:59.894Z,46.37
2023-05-22T11:46:58.663Z,46.35
2023-05-22T11:47:58.975Z,46.06
2023-05-22T11:48:59.227Z,45.37
2023-05-22T11:49:59.580Z,44.85
2023-05-22T11:50:59.782Z,44.66
2023-05-22T11:52:00.064Z,44.66
2023-05-22T11:53:00.621Z,44.66
2023-05-22T11:54:00.651Z,44.46
2023-05-22T11:55:01.296Z,44.76
2023-05-22T11:56:02.483Z,44.46
2023-05-22T11:57:01.520Z,44.95
2023-05-22T11:58:01.807Z,44.85
2023-05-22T11:59:02.065Z,44.93
2023-05-22T12:00:02.352Z,44.46
2023-05-22T12:01:02.656Z,44.95
2023-05-22T12:02:02.941Z,44.85
2023-05-22T12:03:03.298Z,44.56
2023-05-22T12:04:03.732Z,44.78
2023-05-22T12:05:03.808Z,44.68
2023-05-22T12:06:04.144Z,44.48
2023-05-22T12:07:04.592Z,43.97
2023-05-22T12:08:04.708Z,44.29
2023-05-22T12:09:04.926Z,43.97
2023-05-22T12:10:05.264Z,44.19
2023-05-22T12:11:05.552Z,43.70
2023-05-22T12:12:06.009Z,44.29
2023-05-22T12:13:06.203Z,44.29
2023-05-22T12:14:06.336Z,44.09
2023-05-22T12:15:06.730Z,44.19
2023-05-22T12:16:07.088Z,44.38
2023-05-22T12:17:07.350Z,44.38
2023-05-22T12:18:07.513Z,44.38
2023-05-22T12:19:07.909Z,44.38
2023-05-22T12:20:08.284Z,44.29
2023-05-22T12:21:08.428Z,44.38
2023-05-22T12:22:08.706Z,44.48
2023-05-22T12:23:09.020Z,45.17
2023-05-22T12:24:09.393Z,45.17
2023-05-22T12:25:09.571Z,44.88
2023-05-22T12:26:09.731Z,44.98
2023-05-22T12:27:10.175Z,44.66
2023-05-22T12:28:10.646Z,44.78
2023-05-22T12:29:10.787Z,45.07
2023-05-22T12:30:11.022Z,45.39
2023-05-22T12:31:11.300Z,45.19
2023-05-22T12:32:11.762Z,45.19
2023-05-22T12:33:20.158Z,45.59
2023-05-22T12:34:12.177Z,45.09
2023-05-22T12:35:12.497Z,45.07
2023-05-22T12:36:12.691Z,44.88
2023-05-22T12:37:13.092Z,45.07
2023-05-22T12:38:13.306Z,44.98
2023-05-22T12:39:13.578Z,44.26
2023-05-22T12:40:13.923Z,44.36
2023-05-22T12:41:14.147Z,44.17
2023-05-22T12:42:14.583Z,44.07
2023-05-22T12:43:14.888Z,44.76
2023-05-22T12:44:15.102Z,44.85
2023-05-22T12:45:15.468Z,45.15
2023-05-22T12:46:15.634Z,45.27
2023-05-22T12:47:15.868Z,46.06
2023-05-22T12:48:16.365Z,46.45
2023-05-22T12:49:16.393Z,47.04
2023-05-22T12:50:16.816Z,47.14
2023-05-22T12:51:18.635Z,46.75
2023-05-22T12:52:18.217Z,46.15
2023-05-22T12:53:17.635Z,46.35
2023-05-22T12:54:17.918Z,46.62
2023-05-22T12:55:18.062Z,47.02
2023-05-22T12:56:18.389Z,47.02
2023-05-22T12:57:18.771Z,47.02